createdAt,value
2023-08-31T00:00:02.096Z,100538.53
2023-08-31T00:01:05.556Z,100536.84
2023-08-31T00:02:08.054Z,100525.56
2023-08-31T00:03:11.683Z,100536.00
2023-08-31T00:04:16.258Z,100529.16
2023-08-31T00:05:18.269Z,100530.59
2023-08-31T00:06:20.131Z,100533.53
2023-08-31T00:07:22.882Z,100531.84
2023-08-31T00:08:24.749Z,100517.47
2023-08-31T00:09:26.590Z,100523.50
2023-08-31T00:10:28.419Z,100518.91
2023-08-31T00:11:31.658Z,100526.63
2023-08-31T00:12:33.445Z,100522.06
2023-08-31T00:13:35.420Z,100512.66
2023-08-31T00:14:38.581Z,100519.34
2023-08-31T00:15:42.528Z,100512.88
2023-08-31T00:16:47.010Z,100526.44
2023-08-31T00:17:48.862Z,100527.25
2023-08-31T00:18:50.687Z,100518.91
2023-08-31T00:19:52.454Z,100519.34
2023-08-31T00:20:54.448Z,100509.53
2023-08-31T00:21:56.392Z,100516.00
2023-08-31T00:22:58.776Z,100505.56
2023-08-31T00:24:00.720Z,100503.91
2023-08-31T00:25:02.711Z,100500.13
2023-08-31T00:26:04.517Z,100510.56
2023-08-31T00:27:08.005Z,100511.00
2023-08-31T00:28:10.513Z,100516.00
2023-08-31T00:29:12.479Z,100527.91
2023-08-31T00:30:15.423Z,100520.56
2023-08-31T00:31:17.538Z,100520.56
2023-08-31T00:32:19.680Z,100527.91
2023-08-31T00:33:21.790Z,100528.94
2023-08-31T00:34:23.655Z,100528.94
2023-08-31T00:35:25.737Z,100535.19
2023-08-31T00:36:27.484Z,100534.38
2023-08-31T00:37:30.113Z,100537.09
2023-08-31T00:38:32.395Z,100539.78
2023-08-31T00:39:34.641Z,100528.31
2023-08-31T00:40:42.265Z,100528.94
2023-08-31T00:41:46.159Z,100534.38
2023-08-31T00:42:47.912Z,100532.47
2023-08-31T00:43:49.799Z,100528.94
2023-08-31T00:44:51.660Z,100536.47
2023-08-31T00:46:00.042Z,100542.94
2023-08-31T00:47:03.423Z,100543.56
2023-08-31T00:48:06.315Z,100540.63
2023-08-31T00:49:09.459Z,100532.88
2023-08-31T00:50:11.934Z,100541.03
2023-08-31T00:51:14.358Z,100543.56
2023-08-31T00:52:18.435Z,100542.94
2023-08-31T00:53:20.446Z,100539.38
2023-08-31T00:54:22.417Z,100537.50
2023-08-31T00:55:25.065Z,100539.38
2023-08-31T00:56:27.687Z,100508.50
2023-08-31T00:57:29.597Z,100540.22
2023-08-31T00:58:31.733Z,100531.44
2023-08-31T00:59:33.549Z,100533.13
2023-08-31T01:00:50.446Z,100521.66
2023-08-31T01:02:50.121Z,100521.41
2023-08-31T01:04:26.277Z,100515.78
2023-08-31T01:06:38.892Z,100515.78
2023-08-31T01:07:54.191Z,100530.59
2023-08-31T01:09:29.074Z,100535.59
2023-08-31T01:10:43.281Z,100537.69
2023-08-31T01:11:57.517Z,100532.25
2023-08-31T01:13:03.723Z,100535.63
2023-08-31T01:14:14.480Z,100537.72
2023-08-31T01:15:18.967Z,100536.22
2023-08-31T01:16:25.386Z,100540.41
2023-08-31T01:17:31.047Z,100537.69
2023-08-31T01:18:36.810Z,100536.03
2023-08-31T01:19:44.730Z,100542.31
2023-08-31T01:21:03.420Z,100541.47
2023-08-31T01:22:10.816Z,100543.13
2023-08-31T01:23:19.531Z,100543.13
2023-08-31T01:24:23.667Z,100538.13
2023-08-31T01:25:25.704Z,100540.63
2023-08-31T01:26:28.940Z,100536.44
2023-08-31T01:27:32.905Z,100545.63
2023-08-31T01:28:34.814Z,100535.59
2023-08-31T01:29:36.875Z,100535.59
2023-08-31T01:30:38.722Z,100535.81
2023-08-31T01:31:44.823Z,100536.88
2023-08-31T01:32:46.947Z,100535.59
2023-08-31T01:33:49.419Z,100528.72
2023-08-31T01:34:53.301Z,100521.84
2023-08-31T01:35:57.072Z,100522.47
2023-08-31T01:37:04.839Z,100517.03
2023-08-31T01:38:09.862Z,100507.84
2023-08-31T01:39:22.515Z,100502.22
2023-08-31T01:41:05.484Z,100504.72
2023-08-31T01:42:08.331Z,100500.56
2023-08-31T01:43:12.428Z,100495.53
2023-08-31T01:44:18.013Z,100504.72
2023-08-31T01:45:24.151Z,100504.72
2023-08-31T01:46:26.630Z,100507.44
2023-08-31T01:47:29.050Z,100490.56
2023-08-31T01:48:30.915Z,100511.41
2023-08-31T01:49:39.857Z,100497.22
2023-08-31T01:50:41.629Z,100507.03
2023-08-31T01:51:43.445Z,100489.31
2023-08-31T01:52:45.541Z,100501.81
2023-08-31T01:53:47.442Z,100496.38
2023-08-31T01:54:49.772Z,100497.41
2023-08-31T01:55:51.824Z,100493.03
2023-08-31T01:56:53.622Z,100495.75
2023-08-31T01:57:55.490Z,100492.22
2023-08-31T01:59:01.334Z,100497.41
2023-08-31T02:00:05.540Z,100487.63
2023-08-31T02:01:16.237Z,100483.66
2023-08-31T02:02:18.182Z,100490.13
2023-08-31T02:03:20.030Z,100489.28
2023-08-31T02:04:21.885Z,100475.09
2023-08-31T02:05:24.201Z,100480.53
2023-08-31T02:06:28.744Z,100487.63
2023-08-31T02:07:30.527Z,100482.19
2023-08-31T02:08:33.572Z,100486.78
2023-08-31T02:09:35.400Z,100482.19
2023-08-31T02:10:39.824Z,100482.19
2023-08-31T02:11:41.590Z,100493.03
2023-08-31T02:12:43.391Z,100494.94
2023-08-31T02:13:45.146Z,100492.41
2023-08-31T02:14:46.997Z,100493.47
2023-08-31T02:15:52.665Z,100487.22
2023-08-31T02:16:55.390Z,100490.56
2023-08-31T02:17:57.236Z,100493.25
2023-08-31T02:18:59.967Z,100482.84
2023-08-31T02:20:02.810Z,100493.47
2023-08-31T02:21:08.450Z,100492.41
2023-08-31T02:22:10.648Z,100479.69
2023-08-31T02:23:13.442Z,100489.69
2023-08-31T02:24:15.820Z,100484.28
2023-08-31T02:25:17.926Z,100487.00
2023-08-31T02:26:22.839Z,100474.69
2023-08-31T02:27:24.720Z,100475.31
2023-08-31T02:28:26.477Z,100472.81
2023-08-31T02:29:28.266Z,100478.66
2023-08-31T02:30:30.082Z,100486.38
2023-08-31T02:31:32.797Z,100481.78
2023-08-31T02:32:34.607Z,100475.50
2023-08-31T02:33:36.610Z,100476.38
2023-08-31T02:34:38.449Z,100481.78
2023-08-31T02:35:42.016Z,100475.50
2023-08-31T02:36:43.754Z,100475.50
2023-08-31T02:37:45.892Z,100480.13
2023-08-31T02:38:48.005Z,100468.41
2023-08-31T02:39:50.022Z,100482.84
2023-08-31T02:40:51.933Z,100443.84
2023-08-31T02:41:53.720Z,100478.47
2023-08-31T02:42:55.546Z,100479.94
2023-08-31T02:43:57.332Z,100465.50
2023-08-31T02:44:59.186Z,100475.31
2023-08-31T02:46:02.539Z,100478.66
2023-08-31T02:47:04.506Z,100479.28
2023-08-31T02:48:08.803Z,100464.69
2023-08-31T02:49:10.705Z,100481.16
2023-08-31T02:50:12.635Z,100485.75
2023-08-31T02:51:14.528Z,100485.75
2023-08-31T02:52:16.414Z,100489.50
2023-08-31T02:53:18.214Z,100489.50
2023-08-31T02:54:20.583Z,100492.22
2023-08-31T02:55:22.652Z,100489.50
2023-08-31T02:56:24.445Z,100491.41
2023-08-31T02:57:26.301Z,100489.50
2023-08-31T02:58:28.281Z,100483.25
2023-08-31T02:59:30.096Z,100471.16
2023-08-31T03:00:31.944Z,100485.13
2023-08-31T03:01:33.829Z,100488.69
2023-08-31T03:02:35.725Z,100491.59
2023-08-31T03:03:40.321Z,100489.91
2023-08-31T03:04:42.107Z,100492.22
2023-08-31T03:05:45.328Z,100496.19
2023-08-31T03:06:47.148Z,100494.31
2023-08-31T03:07:49.099Z,100498.91
2023-08-31T03:08:50.860Z,100503.47
2023-08-31T03:09:52.732Z,100502.66
2023-08-31T03:10:54.492Z,100515.38
2023-08-31T03:11:56.542Z,100493.88
2023-08-31T03:12:58.828Z,100491.81
2023-08-31T03:14:00.898Z,100502.44
2023-08-31T03:15:02.885Z,100493.47
2023-08-31T03:16:04.932Z,100507.25
2023-08-31T03:17:06.772Z,100506.00
2023-08-31T03:18:08.572Z,100509.13
2023-08-31T03:19:10.477Z,100506.41
2023-08-31T03:20:12.406Z,100501.81
2023-08-31T03:21:14.229Z,100502.66
2023-08-31T03:22:16.088Z,100484.09
2023-08-31T03:23:18.548Z,100489.50
2023-08-31T03:24:20.474Z,100495.56
2023-08-31T03:25:22.304Z,100505.56
2023-08-31T03:26:24.086Z,100501.00
2023-08-31T03:27:26.518Z,100500.16
2023-08-31T03:28:28.396Z,100485.75
2023-08-31T03:29:30.286Z,100499.28
2023-08-31T03:30:32.926Z,100493.06
2023-08-31T03:31:34.708Z,100493.69
2023-08-31T03:32:36.493Z,100492.00
2023-08-31T03:33:38.434Z,100483.25
2023-08-31T03:34:40.257Z,100494.72
2023-08-31T03:35:42.172Z,100491.81
2023-08-31T03:36:44.000Z,100502.84
2023-08-31T03:37:48.944Z,100494.91
2023-08-31T03:38:50.788Z,100491.16
2023-08-31T03:39:52.557Z,100493.06
2023-08-31T03:40:56.229Z,100488.88
2023-08-31T03:41:58.381Z,100493.06
2023-08-31T03:43:00.489Z,100498.47
2023-08-31T03:44:02.770Z,100498.47
2023-08-31T03:45:05.317Z,100489.50
2023-08-31T03:46:07.236Z,100494.91
2023-08-31T03:47:09.378Z,100494.09
2023-08-31T03:48:11.130Z,100495.97
2023-08-31T03:49:13.424Z,100491.38
2023-08-31T03:50:15.352Z,100489.72
2023-08-31T03:51:17.078Z,100493.25
2023-08-31T03:52:19.334Z,100489.72
2023-08-31T03:53:21.871Z,100497.84
2023-08-31T03:54:24.764Z,100491.38
2023-08-31T03:55:27.997Z,100485.13
2023-08-31T03:56:32.893Z,100488.66
2023-08-31T03:57:37.061Z,100488.88
2023-08-31T03:58:47.694Z,100479.50
2023-08-31T03:59:49.550Z,100474.91
2023-08-31T04:00:51.862Z,100484.28
2023-08-31T04:01:54.683Z,100478.88
2023-08-31T04:02:58.017Z,100479.91
2023-08-31T04:04:02.191Z,100478.03
2023-08-31T04:05:06.706Z,100463.84
2023-08-31T04:06:08.774Z,100476.16
2023-08-31T04:07:10.597Z,100474.28
2023-08-31T04:08:13.082Z,100470.09
2023-08-31T04:09:14.827Z,100473.63
2023-08-31T04:10:16.596Z,100474.91
2023-08-31T04:11:18.380Z,100475.72
2023-08-31T04:12:20.256Z,100469.50
2023-08-31T04:13:22.106Z,100466.78
2023-08-31T04:14:23.875Z,100473.00
2023-08-31T04:15:26.538Z,100471.34
2023-08-31T04:16:29.372Z,100474.91
2023-08-31T04:17:31.243Z,100472.19
2023-08-31T04:18:33.101Z,100466.97
2023-08-31T04:19:34.947Z,100467.59
2023-08-31T04:20:36.797Z,100468.63
2023-08-31T04:21:39.289Z,100462.16
2023-08-31T04:22:41.088Z,100468.88
2023-08-31T04:23:42.844Z,100466.16
2023-08-31T04:24:44.571Z,100461.78
2023-08-31T04:25:47.237Z,100463.44
2023-08-31T04:26:51.021Z,100458.03
2023-08-31T04:27:52.809Z,100462.59
2023-08-31T04:28:54.699Z,100458.84
2023-08-31T04:29:56.439Z,100458.44
2023-08-31T04:30:58.167Z,100446.94
2023-08-31T04:32:00.088Z,100466.16
2023-08-31T04:33:01.959Z,100455.72
2023-08-31T04:34:03.770Z,100464.47
2023-08-31T04:35:09.147Z,100460.09
2023-08-31T04:36:10.974Z,100462.59
2023-08-31T04:37:12.908Z,100458.44
2023-08-31T04:38:14.734Z,100460.09
2023-08-31T04:39:16.957Z,100460.91
2023-08-31T04:40:18.706Z,100460.09
2023-08-31T04:41:20.935Z,100453.84
2023-08-31T04:42:22.825Z,100453.84
2023-08-31T04:43:24.638Z,100462.81
2023-08-31T04:44:26.935Z,100459.25
2023-08-31T04:45:28.880Z,100449.66
2023-08-31T04:46:30.665Z,100456.72
2023-08-31T04:47:32.449Z,100453.00
2023-08-31T04:48:34.285Z,100456.53
2023-08-31T04:49:36.286Z,100449.66
2023-08-31T04:50:38.099Z,100459.25
2023-08-31T04:51:40.580Z,100442.13
2023-08-31T04:52:42.298Z,100450.47
2023-08-31T04:53:44.203Z,100456.72
2023-08-31T04:54:45.958Z,100462.16
2023-08-31T04:55:47.740Z,100462.97
2023-08-31T04:56:49.713Z,100453.84
2023-08-31T04:57:51.626Z,100450.47
2023-08-31T04:58:53.594Z,100463.84
2023-08-31T04:59:55.394Z,100460.50
2023-08-31T05:00:57.241Z,100451.50
2023-08-31T05:01:59.039Z,100457.78
2023-08-31T05:03:00.961Z,100460.50
2023-08-31T05:04:04.202Z,100454.22
2023-08-31T05:05:06.743Z,100453.19
2023-08-31T05:06:09.217Z,100451.31
2023-08-31T05:07:11.362Z,100444.41
2023-08-31T05:08:13.105Z,100455.06
2023-08-31T05:09:15.297Z,100441.94
2023-08-31T05:10:17.986Z,100453.00
2023-08-31T05:11:19.880Z,100443.38
2023-08-31T05:12:21.621Z,100434.41
2023-08-31T05:13:23.413Z,100458.03
2023-08-31T05:14:25.304Z,100444.22
2023-08-31T05:15:28.764Z,100447.56
2023-08-31T05:16:30.575Z,100441.31
2023-08-31T05:17:32.683Z,100438.81
2023-08-31T05:18:34.661Z,100444.84
2023-08-31T05:19:36.432Z,100443.38
2023-08-31T05:20:38.242Z,100442.16
2023-08-31T05:21:40.034Z,100438.38
2023-08-31T05:22:41.824Z,100438.78
2023-08-31T05:23:43.738Z,100442.97
2023-08-31T05:24:45.689Z,100439.81
2023-08-31T05:25:47.524Z,100444.22
2023-08-31T05:26:50.661Z,100446.28
2023-08-31T05:27:52.423Z,100437.72
2023-08-31T05:28:54.230Z,100440.03
2023-08-31T05:29:56.108Z,100440.03
2023-08-31T05:30:59.282Z,100442.94
2023-08-31T05:32:01.160Z,100442.50
2023-08-31T05:33:04.703Z,100443.94
2023-08-31T05:34:06.587Z,100444.34
2023-08-31T05:35:09.150Z,100439.56
2023-08-31T05:36:10.899Z,100438.06
2023-08-31T05:37:13.243Z,100441.44
2023-08-31T05:38:15.051Z,100429.31
2023-08-31T05:39:18.069Z,100433.72
2023-08-31T05:40:19.845Z,100426.63
2023-08-31T05:41:22.222Z,100430.75
2023-08-31T05:42:24.154Z,100441.63
2023-08-31T05:43:25.955Z,100429.50
2023-08-31T05:44:28.219Z,100428.84
2023-08-31T05:45:36.404Z,100439.94
2023-08-31T05:46:39.721Z,100436.56
2023-08-31T05:47:42.084Z,100432.78
2023-08-31T05:48:44.149Z,100432.59
2023-08-31T05:49:46.326Z,100436.97
2023-08-31T05:50:48.182Z,100423.22
2023-08-31T05:51:50.909Z,100426.09
2023-08-31T05:52:52.764Z,100425.25
2023-08-31T05:53:54.688Z,100436.09
2023-08-31T05:54:56.438Z,100431.50
2023-08-31T05:56:06.026Z,100432.34
2023-08-31T05:57:08.110Z,100437.94
2023-08-31T05:58:10.046Z,100436.28
2023-08-31T05:59:11.841Z,100440.66
2023-08-31T06:00:14.203Z,100444.00
2023-08-31T06:01:17.401Z,100449.22
2023-08-31T06:02:19.218Z,100447.56
2023-08-31T06:03:21.003Z,100445.66
2023-08-31T06:04:22.816Z,100439.84
2023-08-31T06:05:24.757Z,100451.72
2023-08-31T06:06:26.647Z,100454.44
2023-08-31T06:07:30.211Z,100454.22
2023-08-31T06:08:32.154Z,100450.66
2023-08-31T06:09:33.902Z,100456.72
2023-08-31T06:10:35.746Z,100456.72
2023-08-31T06:11:37.500Z,100459.44
2023-08-31T06:12:39.229Z,100459.22
2023-08-31T06:13:41.701Z,100454.44
2023-08-31T06:14:43.563Z,100457.31
2023-08-31T06:15:48.163Z,100445.22
2023-08-31T06:16:50.109Z,100448.13
2023-08-31T06:17:52.025Z,100455.22
2023-08-31T06:18:53.866Z,100454.41
2023-08-31T06:19:55.751Z,100452.31
2023-08-31T06:20:57.583Z,100465.03
2023-08-31T06:21:59.371Z,100461.28
2023-08-31T06:23:01.280Z,100453.13
2023-08-31T06:24:03.855Z,100453.34
2023-08-31T06:25:06.801Z,100460.22
2023-08-31T06:26:08.653Z,100453.13
2023-08-31T06:27:10.422Z,100462.94
2023-08-31T06:28:12.763Z,100460.22
2023-08-31T06:29:15.033Z,100464.84
2023-08-31T06:30:18.496Z,100454.59
2023-08-31T06:31:20.644Z,100463.78
2023-08-31T06:32:22.501Z,100459.41
2023-08-31T06:33:24.316Z,100458.34
2023-08-31T06:34:26.241Z,100459.16
2023-08-31T06:35:28.089Z,100451.03
2023-08-31T06:36:29.950Z,100458.34
2023-08-31T06:37:32.145Z,100456.44
2023-08-31T06:38:34.133Z,100457.31
2023-08-31T06:39:37.002Z,100458.13
2023-08-31T06:40:39.374Z,100450.81
2023-08-31T06:41:41.111Z,100456.25
2023-08-31T06:42:42.885Z,100451.25
2023-08-31T06:43:44.700Z,100455.41
2023-08-31T06:44:47.322Z,100455.41
2023-08-31T06:45:49.078Z,100444.78
2023-08-31T06:46:51.134Z,100447.25
2023-08-31T06:47:52.946Z,100451.88
2023-08-31T06:48:54.886Z,100443.91
2023-08-31T06:49:56.835Z,100436.81
2023-08-31T06:50:58.655Z,100447.03
2023-08-31T06:52:01.666Z,100447.25
2023-08-31T06:53:04.497Z,100445.19
2023-08-31T06:54:09.348Z,100440.38
2023-08-31T06:55:12.306Z,100450.63
2023-08-31T06:56:14.168Z,100445.19
2023-08-31T06:57:16.067Z,100445.19
2023-08-31T06:58:17.999Z,100449.75
2023-08-31T06:59:19.859Z,100447.03
2023-08-31T07:00:21.696Z,100444.34
2023-08-31T07:01:23.549Z,100443.47
2023-08-31T07:02:28.033Z,100446.19
2023-08-31T07:03:30.176Z,100441.81
2023-08-31T07:04:32.010Z,100450.63
2023-08-31T07:05:42.762Z,100446.00
2023-08-31T07:06:44.505Z,100444.75
2023-08-31T07:07:46.367Z,100449.56
2023-08-31T07:08:48.849Z,100444.94
2023-08-31T07:09:50.706Z,100449.34
2023-08-31T07:10:52.605Z,100446.00
2023-08-31T07:11:54.414Z,100447.66
2023-08-31T07:12:56.428Z,100434.06
2023-08-31T07:13:58.931Z,100441.41
2023-08-31T07:15:00.742Z,100441.19
2023-08-31T07:16:02.622Z,100436.59
2023-08-31T07:17:04.861Z,100437.66
2023-08-31T07:18:06.785Z,100427.19
2023-08-31T07:19:08.684Z,100434.94
2023-08-31T07:20:11.164Z,100428.88
2023-08-31T07:21:14.588Z,100426.38
2023-08-31T07:22:16.854Z,100435.53
2023-08-31T07:23:18.712Z,100423.00
2023-08-31T07:24:20.635Z,100433.88
2023-08-31T07:25:22.501Z,100421.56
2023-08-31T07:26:24.255Z,100434.53
2023-08-31T07:27:26.475Z,100437.25
2023-08-31T07:28:28.582Z,100437.25
2023-08-31T07:29:30.649Z,100437.25
2023-08-31T07:30:34.320Z,100434.53
2023-08-31T07:31:36.108Z,100434.28
2023-08-31T07:32:38.809Z,100435.94
2023-08-31T07:33:40.978Z,100435.94
2023-08-31T07:34:43.178Z,100426.38
2023-08-31T07:35:45.004Z,100428.44
2023-08-31T07:36:46.832Z,100435.13
2023-08-31T07:37:48.720Z,100439.53
2023-08-31T07:38:50.671Z,100431.38
2023-08-31T07:39:52.713Z,100430.53
2023-08-31T07:40:55.060Z,100427.59
2023-08-31T07:41:57.228Z,100430.53
2023-08-31T07:42:59.061Z,100425.94
2023-08-31T07:44:04.789Z,100422.16
2023-08-31T07:45:09.769Z,100428.84
2023-08-31T07:46:11.630Z,100430.09
2023-08-31T07:47:13.891Z,100425.31
2023-08-31T07:48:16.110Z,100434.69
2023-08-31T07:49:17.925Z,100434.69
2023-08-31T07:50:19.857Z,100434.69
2023-08-31T07:51:24.369Z,100431.97
2023-08-31T07:52:26.251Z,100435.50
2023-08-31T07:53:29.556Z,100438.22
2023-08-31T07:54:32.418Z,100438.22
2023-08-31T07:55:34.440Z,100436.38
2023-08-31T07:56:36.218Z,100436.38
2023-08-31T07:57:38.144Z,100437.63
2023-08-31T07:58:39.996Z,100440.13
2023-08-31T07:59:41.768Z,100442.63
2023-08-31T08:00:43.890Z,100436.38
2023-08-31T08:01:45.929Z,100433.66
2023-08-31T08:02:48.041Z,100439.09
2023-08-31T08:03:50.565Z,100439.69
2023-08-31T08:04:52.420Z,100438.03
2023-08-31T08:05:54.349Z,100436.13
2023-08-31T08:06:56.123Z,100434.69
2023-08-31T08:07:57.918Z,100438.03
2023-08-31T08:08:59.870Z,100442.63
2023-08-31T08:10:02.020Z,100443.47
2023-08-31T08:11:06.224Z,100441.81
2023-08-31T08:12:08.612Z,100445.13
2023-08-31T08:13:11.584Z,100439.69
2023-08-31T08:14:13.576Z,100439.69
2023-08-31T08:15:15.820Z,100445.13
2023-08-31T08:16:17.745Z,100447.84
2023-08-31T08:17:19.546Z,100442.41
2023-08-31T08:18:21.402Z,100451.38
2023-08-31T08:19:24.616Z,100445.13
2023-08-31T08:20:26.893Z,100445.13
2023-08-31T08:21:28.718Z,100456.00
2023-08-31T08:22:30.621Z,100445.13
2023-08-31T08:23:32.517Z,100452.22
2023-08-31T08:24:34.293Z,100446.78
2023-08-31T08:25:36.119Z,100436.19
2023-08-31T08:26:37.981Z,100448.47
2023-08-31T08:27:39.882Z,100447.63
2023-08-31T08:28:41.690Z,100449.50
2023-08-31T08:29:43.442Z,100452.22
2023-08-31T08:30:45.259Z,100452.22
2023-08-31T08:31:47.135Z,100453.91
2023-08-31T08:32:49.041Z,100455.75
2023-08-31T08:33:50.977Z,100456.63
2023-08-31T08:34:52.794Z,100446.78
2023-08-31T08:35:58.291Z,100451.81
2023-08-31T08:37:00.136Z,100461.00
2023-08-31T08:38:02.192Z,100461.00
2023-08-31T08:39:04.846Z,100453.03
2023-08-31T08:40:07.710Z,100455.56
2023-08-31T08:41:09.831Z,100450.13
2023-08-31T08:42:12.623Z,100443.91
2023-08-31T08:43:15.421Z,100450.94
2023-08-31T08:44:18.064Z,100454.50
2023-08-31T08:45:25.477Z,100453.91
2023-08-31T08:46:27.631Z,100451.56
2023-08-31T08:47:30.638Z,100452.84
2023-08-31T08:48:36.133Z,100450.13
2023-08-31T08:49:38.267Z,100445.31
2023-08-31T08:50:41.309Z,100451.78
2023-08-31T08:51:43.424Z,100452.59
2023-08-31T08:52:46.661Z,100447.84
2023-08-31T08:53:52.023Z,100451.78
2023-08-31T08:54:55.106Z,100449.06
2023-08-31T08:55:56.973Z,100453.47
2023-08-31T08:56:58.855Z,100449.06
2023-08-31T08:58:01.380Z,100453.47
2023-08-31T08:59:03.132Z,100443.63
2023-08-31T09:00:06.334Z,100441.97
2023-08-31T09:01:08.732Z,100449.06
2023-08-31T09:02:12.796Z,100443.03
2023-08-31T09:03:14.966Z,100449.88
2023-08-31T09:04:17.846Z,100439.69
2023-08-31T09:05:19.918Z,100447.41
2023-08-31T09:06:22.178Z,100442.19
2023-08-31T09:07:24.972Z,100444.69
2023-08-31T09:08:28.008Z,100443.84
2023-08-31T09:09:29.895Z,100437.59
2023-08-31T09:10:36.850Z,100432.97
2023-08-31T09:11:38.710Z,100430.06
2023-08-31T09:12:40.869Z,100433.81
2023-08-31T09:13:42.691Z,100405.25
2023-08-31T09:14:44.929Z,100417.78
2023-08-31T09:15:50.462Z,100426.91
2023-08-31T09:16:53.540Z,100428.59
2023-08-31T09:17:55.433Z,100427.53
2023-08-31T09:18:58.939Z,100426.72
2023-08-31T09:20:07.008Z,100420.88
2023-08-31T09:21:12.641Z,100422.94
2023-08-31T09:22:14.409Z,100418.34
2023-08-31T09:23:17.256Z,100421.28
2023-08-31T09:24:19.812Z,100413.78
2023-08-31T09:25:21.972Z,100405.63
2023-08-31T09:26:23.880Z,100427.53
2023-08-31T09:27:26.021Z,100412.53
2023-08-31T09:28:29.120Z,100410.84
2023-08-31T09:29:31.411Z,100420.44
2023-08-31T09:30:38.031Z,100411.66
2023-08-31T09:31:44.265Z,100421.28
2023-08-31T09:32:53.349Z,100413.94
2023-08-31T09:33:55.209Z,100381.66
2023-08-31T09:35:10.500Z,100407.91
2023-08-31T09:36:16.667Z,100403.53
2023-08-31T09:37:18.513Z,100415.41
2023-08-31T09:38:20.673Z,100413.13
2023-08-31T09:39:22.509Z,100415.44
2023-08-31T09:40:24.786Z,100417.53
2023-08-31T09:41:26.769Z,100416.66
2023-08-31T09:42:39.400Z,100416.28
2023-08-31T09:43:41.608Z,100422.72
2023-08-31T09:44:50.318Z,100419.38
2023-08-31T09:45:53.591Z,100419.19
2023-08-31T09:46:56.044Z,100417.28
2023-08-31T09:48:00.310Z,100412.91
2023-08-31T09:49:02.671Z,100417.28
2023-08-31T09:50:05.077Z,100417.53
2023-08-31T09:51:08.450Z,100419.38
2023-08-31T09:52:10.664Z,100414.81
2023-08-31T09:53:13.815Z,100417.53
2023-08-31T09:54:22.788Z,100415.00
2023-08-31T09:55:29.265Z,100413.34
2023-08-31T09:56:34.466Z,100416.22
2023-08-31T09:57:46.152Z,100418.75
2023-08-31T09:58:49.617Z,100418.53
2023-08-31T09:59:51.569Z,100418.75
2023-08-31T10:00:54.064Z,100414.34
2023-08-31T10:01:57.810Z,100416.22
2023-08-31T10:03:05.732Z,100410.78
2023-08-31T10:04:09.966Z,100414.34
2023-08-31T10:05:12.295Z,100413.31
2023-08-31T10:06:14.184Z,100405.34
2023-08-31T10:07:16.682Z,100405.19
2023-08-31T10:08:20.188Z,100414.56
2023-08-31T10:09:22.557Z,100411.63
2023-08-31T10:10:25.335Z,100414.34
2023-08-31T10:11:29.076Z,100417.06
2023-08-31T10:12:32.196Z,100419.78
2023-08-31T10:13:37.712Z,100423.31
2023-08-31T10:14:39.806Z,100421.47
2023-08-31T10:15:44.267Z,100423.31
2023-08-31T10:16:47.295Z,100432.13
2023-08-31T10:17:49.360Z,100430.44
2023-08-31T10:18:51.720Z,100421.91
2023-08-31T10:19:54.033Z,100432.31
2023-08-31T10:20:55.953Z,100417.97
2023-08-31T10:22:01.687Z,100428.56
2023-08-31T10:23:05.358Z,100428.56
2023-08-31T10:24:07.995Z,100434.59
2023-08-31T10:25:10.851Z,100431.28
2023-08-31T10:26:13.030Z,100432.94
2023-08-31T10:27:21.124Z,100429.41
2023-08-31T10:28:24.275Z,100421.88
2023-08-31T10:29:30.930Z,100431.06
2023-08-31T10:30:32.945Z,100425.41
2023-08-31T10:31:35.504Z,100428.13
2023-08-31T10:32:37.327Z,100421.03
2023-08-31T10:33:47.619Z,100423.72
2023-08-31T10:35:16.062Z,100429.50
2023-08-31T10:36:19.142Z,100425.97
2023-08-31T10:37:23.045Z,100423.91
2023-08-31T10:38:29.670Z,100422.25
2023-08-31T10:39:39.237Z,100423.91
2023-08-31T10:40:41.047Z,100424.50
2023-08-31T10:41:43.791Z,100426.63
2023-08-31T10:42:47.968Z,100417.84
2023-08-31T10:43:54.931Z,100421.63
2023-08-31T10:45:06.961Z,100418.47
2023-08-31T10:46:20.506Z,100424.75
2023-08-31T10:47:39.671Z,100418.63
2023-08-31T10:48:55.676Z,100401.97
2023-08-31T10:50:00.804Z,100414.06
2023-08-31T10:51:02.697Z,100411.78
2023-08-31T10:52:28.969Z,100394.84
2023-08-31T10:53:42.505Z,100404.00
2023-08-31T10:54:44.458Z,100389.00
2023-08-31T10:55:55.281Z,100399.44
2023-08-31T10:57:06.782Z,100400.50
2023-08-31T10:58:11.951Z,100393.19
2023-08-31T10:59:13.760Z,100395.06
2023-08-31T11:00:47.859Z,100395.66
2023-08-31T11:02:08.479Z,100379.16
2023-08-31T11:03:14.173Z,100391.69
2023-08-31T11:04:16.365Z,100388.56
2023-08-31T11:05:19.481Z,100380.50
2023-08-31T11:06:23.132Z,100391.97
2023-08-31T11:07:27.292Z,100387.78
2023-08-31T11:08:29.387Z,100389.47
2023-08-31T11:09:32.235Z,100383.22
2023-08-31T11:10:34.050Z,100379.63
2023-08-31T11:11:41.469Z,100377.13
2023-08-31T11:12:46.092Z,100376.06
2023-08-31T11:13:47.915Z,100382.34
2023-08-31T11:14:49.663Z,100373.34
2023-08-31T11:15:53.180Z,100379.84
2023-08-31T11:16:55.128Z,100379.84
2023-08-31T11:17:57.365Z,100386.13
2023-08-31T11:18:59.263Z,100379.84
2023-08-31T11:20:02.337Z,100375.47
2023-08-31T11:21:06.959Z,100386.13
2023-08-31T11:22:11.359Z,100373.34
2023-08-31T11:23:14.073Z,100386.75
2023-08-31T11:24:18.927Z,100377.78
2023-08-31T11:25:21.411Z,100373.19
2023-08-31T11:26:23.422Z,100378.19
2023-08-31T11:27:26.164Z,100376.91
2023-08-31T11:28:34.362Z,100388.63
2023-08-31T11:29:45.739Z,100383.22
2023-08-31T11:30:49.809Z,100388.19
2023-08-31T11:31:51.634Z,100379.84
2023-08-31T11:32:54.275Z,100391.13
2023-08-31T11:33:57.209Z,100384.88
2023-08-31T11:34:59.060Z,100379.03
2023-08-31T11:36:00.968Z,100382.16
2023-08-31T11:37:03.869Z,100382.16
2023-08-31T11:38:05.863Z,100378.59
2023-08-31T11:39:09.845Z,100370.44
2023-08-31T11:40:11.907Z,100375.88
2023-08-31T11:41:13.801Z,100377.78
2023-08-31T11:42:17.063Z,100378.59
2023-08-31T11:43:21.085Z,100365.84
2023-08-31T11:44:23.039Z,100369.38
2023-08-31T11:45:25.617Z,100368.56
2023-08-31T11:46:27.909Z,100364.78
2023-08-31T11:47:29.949Z,100366.66
2023-08-31T11:48:33.779Z,100366.06
2023-08-31T11:49:35.766Z,100370.22
2023-08-31T11:50:40.892Z,100370.22
2023-08-31T11:51:44.573Z,100362.47
2023-08-31T11:52:46.536Z,100379.81
2023-08-31T11:53:48.533Z,100372.72
2023-08-31T11:54:54.960Z,100368.31
2023-08-31T11:55:56.793Z,100359.13
2023-08-31T11:56:58.538Z,100363.50
2023-08-31T11:58:00.384Z,100370.00
2023-08-31T11:59:04.439Z,100362.88
2023-08-31T12:00:08.187Z,100367.88
2023-08-31T12:01:10.037Z,100365.00
2023-08-31T12:02:11.897Z,100365.16
2023-08-31T12:03:14.114Z,100369.78
2023-08-31T12:04:25.154Z,100353.47